Time;durP1;ratioP1;P1;durP2;ratioP2;P2;SDS_P1;SDS_P2;PMS_P1;PMS_P2;Temp;Humidity;BMP_temperature;BMP_pressure;BME280_temperature;BME280_humidity;BME280_pressure;Samples;Min_cycle;Max_cycle;Signal;HPM_P1;HPM_P2
2023/05/18 00:01:23;;;;;;;19.70;9.38;;;;;;;8.64;91.32;100191.66;4834310;28;20543;-58
2023/05/18 00:03:54;;;;;;;20.45;10.05;;;;;;;8.53;92.07;100206.50;4829269;28;20070;-57
2023/05/18 00:06:26;;;;;;;30.85;10.85;;;;;;;8.45;92.33;100208.31;4834738;28;20057;-58
2023/05/18 00:08:58;;;;;;;23.50;10.00;;;;;;;8.43;92.45;100217.88;4829623;28;20059;-57
2023/05/18 00:11:30;;;;;;;21.65;9.43;;;;;;;8.48;93.04;100220.44;4834770;28;20046;-58
2023/05/18 00:14:02;;;;;;;18.05;9.07;;;;;;;8.42;92.38;100218.75;4836147;28;20616;-57
2023/05/18 00:16:34;;;;;;;18.63;8.40;;;;;;;8.44;92.88;100214.41;4827861;28;20155;-57
2023/05/18 00:19:08;;;;;;;20.67;9.35;;;;;;;8.54;93.29;100221.28;4834572;28;20057;-58
2023/05/18 00:21:39;;;;;;;24.10;9.25;;;;;;;8.53;93.01;100229.09;4834877;28;20062;-57
2023/05/18 00:24:11;;;;;;;23.10;9.75;;;;;;;8.49;93.65;100225.66;4834678;28;20074;-57
2023/05/18 00:26:42;;;;;;;25.42;9.77;;;;;;;8.13;93.53;100170.34;4833549;28;20073;-57
2023/05/18 00:29:15;;;;;;;32.00;12.68;;;;;;;8.44;93.94;100224.84;4825773;28;20054;-58
2023/05/18 00:31:48;;;;;;;24.38;10.50;;;;;;;8.37;93.90;100215.31;4835582;28;20253;-57
2023/05/18 00:34:18;;;;;;;18.50;9.73;;;;;;;8.44;93.56;100222.22;4834731;28;20050;-57
2023/05/18 00:36:54;;;;;;;20.13;10.88;;;;;;;8.50;94.44;100224.75;4833314;28;20543;-57
2023/05/18 00:39:27;;;;;;;20.50;9.60;;;;;;;8.58;93.95;100217.75;4824583;28;20049;-57
2023/05/18 00:42:01;;;;;;;22.10;10.02;;;;;;;8.68;93.70;100217.66;4834883;28;20054;-57
2023/05/18 00:44:31;;;;;;;23.08;9.48;;;;;;;8.69;92.92;100212.44;4833767;28;20053;-58
2023/05/18 00:47:04;;;;;;;18.95;8.43;;;;;;;8.58;93.05;100211.66;4831440;28;22107;-57
2023/05/18 00:49:36;;;;;;;18.17;9.27;;;;;;;8.50;93.11;100203.94;4824939;28;20057;-57
2023/05/18 00:52:08;;;;;;;24.73;9.70;;;;;;;8.50;93.42;100209.13;4836723;28;20046;-57
2023/05/18 00:54:40;;;;;;;15.85;9.23;;;;;;;8.54;93.08;100194.38;4853447;28;20149;-57
2023/05/18 00:57:12;;;;;;;22.35;8.48;;;;;;;8.58;92.38;100196.91;4853073;28;20054;-57
2023/05/18 00:59:44;;;;;;;18.50;9.10;;;;;;;8.71;92.66;100191.56;4850172;28;20092;-57
2023/05/18 01:02:19;;;;;;;19.63;8.27;;;;;;;8.91;91.31;100191.38;4853544;28;20058;-57
2023/05/18 01:04:51;;;;;;;18.95;8.32;;;;;;;9.12;89.48;100200.72;4852948;28;20049;-57
2023/05/18 01:07:25;;;;;;;18.88;6.57;;;;;;;9.16;88.51;100194.56;4852309;28;20136;-58
2023/05/18 01:09:56;;;;;;;22.70;8.98;;;;;;;9.24;88.54;100182.31;4853437;28;20159;-58
2023/05/18 01:12:38;;;;;;;19.92;9.10;;;;;;;9.41;88.39;100179.47;4852955;28;20046;-57
2023/05/18 01:15:14;;;;;;;20.85;7.78;;;;;;;9.45;87.24;100171.59;4842947;28;20179;-57
2023/05/18 01:18:03;;;;;;;17.33;8.25;;;;;;;9.57;87.03;100169.72;4842574;28;20046;-56
2023/05/18 01:20:38;;;;;;;24.42;9.05;;;;;;;9.63;86.07;100159.19;4844675;28;20246;-57
2023/05/18 01:23:43;;;;;;;16.15;8.30;;;;;;;9.87;85.29;100169.28;4853508;28;20054;-57
2023/05/18 01:26:23;;;;;;;17.80;8.73;;;;;;;9.73;84.78;100160.78;4843668;28;20404;-57
2023/05/18 01:28:54;;;;;;;;;;;;;;;9.56;85.00;100170.59;4841936;28;20050;-57
2023/05/18 01:31:26;;;;;;;14.38;7.05;;;;;;;9.57;85.29;100169.72;4847424;28;19925;-57
2023/05/18 01:33:57;;;;;;;18.30;7.18;;;;;;;9.43;85.26;100168.16;4850851;28;20054;-58
2023/05/18 01:36:28;;;;;;;14.57;7.55;;;;;;;9.28;85.79;100170.97;4852180;28;20557;-57
2023/05/18 01:39:03;;;;;;;15.43;8.30;;;;;;;9.22;86.38;100178.88;4852396;28;20053;-57
2023/05/18 01:41:47;;;;;;;16.55;8.23;;;;;;;9.07;86.65;100180.78;4841520;28;20567;-57
2023/05/18 01:44:27;;;;;;;19.08;8.45;;;;;;;8.93;87.47;100193.09;4850471;28;20092;-56
2023/05/18 01:47:04;;;;;;;16.33;8.55;;;;;;;8.53;88.21;100157.03;4844526;28;20049;-54
2023/05/18 01:49:48;;;;;;;20.98;8.68;;;;;;;8.45;89.23;100194.44;4843436;28;20103;-56
2023/05/18 01:52:25;;;;;;;26.45;9.50;;;;;;;8.35;89.87;100191.88;4843976;28;20058;-52
2023/05/18 01:55:05;;;;;;;20.15;8.32;;;;;;;8.35;90.82;100201.44;4844410;28;20054;-54
2023/05/18 01:57:45;;;;;;;20.27;9.00;;;;;;;8.36;90.84;100195.34;4846861;28;20125;-57
2023/05/18 02:00:21;;;;;;;15.55;8.52;;;;;;;8.46;90.76;100186.59;4847078;28;20084;-54
2023/05/18 02:02:52;;;;;;;20.33;9.30;;;;;;;8.58;90.09;100186.50;4855500;28;20136;-57
2023/05/18 02:05:23;;;;;;;21.27;10.35;;;;;;;8.58;89.70;100176.06;4852396;28;20055;-56
2023/05/18 02:07:54;;;;;;;20.40;9.43;;;;;;;8.70;89.43;100169.88;4860847;28;20081;-55
2023/05/18 02:10:24;;;;;;;16.35;9.13;;;;;;;8.63;89.41;100152.59;4857760;28;20049;-56
2023/05/18 02:12:59;;;;;;;18.17;8.70;;;;;;;8.75;88.76;100167.22;4857841;28;20050;-56
2023/05/18 02:15:30;;;;;;;20.52;8.65;;;;;;;8.50;88.45;100125.81;4858037;28;20050;-56
2023/05/18 02:18:01;;;;;;;26.33;9.23;;;;;;;8.69;88.93;100149.94;4857812;28;20058;-56
2023/05/18 02:20:32;;;;;;;16.13;8.70;;;;;;;8.72;88.62;100141.22;4857111;28;20058;-53
2023/05/18 02:23:03;;;;;;;16.98;8.25;;;;;;;8.92;87.33;100160.09;4851883;28;20051;-55
2023/05/18 02:25:37;;;;;;;21.45;9.27;;;;;;;9.01;87.39;100144.38;4859611;28;20118;-56
2023/05/18 02:28:09;;;;;;;21.00;8.00;;;;;;;9.04;86.81;100128.69;4855804;28;20050;-57
2023/05/18 02:30:40;;;;;;;15.80;8.80;;;;;;;8.95;87.40;100130.53;4853950;28;20050;-54
2023/05/18 02:33:10;;;;;;;16.83;7.70;;;;;;;8.91;87.42;100132.34;4854564;28;20046;-57
2023/05/18 02:35:45;;;;;;;15.60;7.65;;;;;;;8.80;87.52;100123.75;4854374;28;20049;-54
2023/05/18 02:38:15;;;;;;;16.48;7.97;;;;;;;8.68;88.13;100127.34;4845179;28;20049;-57
2023/05/18 02:40:48;;;;;;;14.88;7.88;;;;;;;8.59;88.29;100141.34;4854645;28;20053;-55
2023/05/18 02:43:23;;;;;;;19.08;8.02;;;;;;;8.47;88.76;100140.63;4854403;28;20570;-56
2023/05/18 02:45:53;;;;;;;12.55;7.72;;;;;;;8.54;89.15;100135.31;4847309;28;20066;-54
2023/05/18 02:48:26;;;;;;;16.95;7.70;;;;;;;8.51;88.87;100132.75;4857531;28;20126;-53
2023/05/18 02:50:57;;;;;;;13.15;8.18;;;;;;;8.46;89.39;100134.50;4857874;28;20055;-54
2023/05/18 02:53:30;;;;;;;13.93;8.27;;;;;;;8.45;89.95;100132.81;4857703;28;20136;-54
2023/05/18 02:56:02;;;;;;;18.27;8.13;;;;;;;8.46;89.43;100134.50;4858915;28;20068;-54
2023/05/18 02:58:36;;;;;;;14.88;7.60;;;;;;;8.50;89.76;100141.44;4846573;28;20136;-56
2023/05/18 03:01:08;;;;;;;15.80;7.18;;;;;;;8.27;89.52;100112.13;4854294;28;20681;-55
2023/05/18 03:03:40;;;;;;;16.10;7.82;;;;;;;8.46;90.21;100154.50;4857298;28;20567;-53
2023/05/18 03:06:12;;;;;;;17.70;8.15;;;;;;;8.46;90.32;100155.34;4856773;28;20058;-56
2023/05/18 03:08:43;;;;;;;15.43;7.43;;;;;;;8.44;90.46;100159.72;4852565;28;20079;-56
2023/05/18 03:11:13;;;;;;;12.73;6.78;;;;;;;8.46;90.30;100160.56;4860527;28;20053;-56
2023/05/18 03:13:46;;;;;;;15.05;8.27;;;;;;;8.52;90.57;100160.50;4859926;28;20046;-57
2023/05/18 03:16:19;;;;;;;18.38;8.60;;;;;;;8.37;90.70;100134.59;4855579;28;20050;-57
2023/05/18 03:18:51;;;;;;;15.82;7.80;;;;;;;8.53;91.31;100162.22;4854929;28;20557;-57
2023/05/18 03:21:32;;;;;;;16.27;7.38;;;;;;;8.51;90.75;100184.84;4851523;28;20070;-57
2023/05/18 03:24:04;;;;;;;14.50;7.35;;;;;;;8.20;92.73;100143.41;4844306;28;20542;-57
2023/05/18 03:26:40;;;;;;;13.05;7.65;;;;;;;8.27;93.90;100182.41;4854596;28;20053;-57
2023/05/18 03:29:13;;;;;;;16.95;7.80;;;;;;;8.29;93.90;100189.34;4855019;28;20052;-58
2023/05/18 03:31:44;;;;;;;17.25;8.35;;;;;;;8.34;94.45;100189.31;4845306;28;20093;-57
2023/05/18 03:34:15;;;;;;;15.40;8.45;;;;;;;8.29;94.80;100198.88;4855127;28;20053;-57
2023/05/18 03:36:47;;;;;;;20.45;9.23;;;;;;;8.30;95.25;100190.19;4854273;28;20054;-57
2023/05/18 03:39:18;;;;;;;17.73;8.73;;;;;;;8.27;95.36;100190.22;4854333;28;20149;-57
2023/05/18 03:41:51;;;;;;;18.15;8.38;;;;;;;8.19;95.32;100185.94;4854786;28;20052;-57
2023/05/18 03:44:23;;;;;;;16.95;8.30;;;;;;;8.16;95.08;100183.38;4855222;28;20128;-57
2023/05/18 03:46:54;;;;;;;19.00;9.68;;;;;;;8.11;95.92;100200.75;4844399;28;20728;-57
2023/05/18 03:49:25;;;;;;;18.13;10.18;;;;;;;8.16;96.51;100198.97;4842860;28;20172;-57
2023/05/18 03:51:59;;;;;;;23.60;10.70;;;;;;;7.94;96.70;100166.19;4864629;28;20069;-58
2023/05/18 03:54:31;;;;;;;17.10;9.85;;;;;;;8.11;97.58;100195.56;4853919;28;20050;-58
2023/05/18 03:57:02;;;;;;;17.83;9.38;;;;;;;8.02;97.81;100184.34;4861218;28;20147;-58
2023/05/18 03:59:34;;;;;;;19.13;9.75;;;;;;;8.13;98.61;100196.38;4851714;28;20061;-57
2023/05/18 04:02:06;;;;;;;19.67;10.13;;;;;;;8.20;97.42;100199.81;4849931;28;20053;-58
2023/05/18 04:04:40;;;;;;;19.77;11.15;;;;;;;8.26;97.60;100198.88;4853157;28;20198;-57
2023/05/18 04:07:11;;;;;;;19.17;10.68;;;;;;;8.29;97.14;100209.31;4853709;28;20224;-59
2023/05/18 04:09:45;;;;;;;18.02;10.15;;;;;;;7.97;96.44;100202.59;4842484;28;20062;-58
2023/05/18 04:12:17;;;;;;;18.40;9.95;;;;;;;7.95;97.51;100219.94;4853298;28;20057;-58
2023/05/18 04:14:50;;;;;;;18.83;10.15;;;;;;;7.86;97.94;100220.00;4853166;28;20050;-58
2023/05/18 04:17:22;;;;;;;16.42;9.15;;;;;;;7.65;97.68;100216.63;4853708;28;20057;-57
2023/05/18 04:19:54;;;;;;;15.73;9.15;;;;;;;7.54;98.62;100223.66;4848667;28;20054;-58
2023/05/18 04:22:28;;;;;;;19.75;10.18;;;;;;;7.35;99.56;100221.09;4853436;28;20069;-58
2023/05/18 04:25:00;;;;;;;19.17;9.85;;;;;;;7.22;99.13;100213.38;4853045;28;20061;-58
2023/05/18 04:27:32;;;;;;;17.52;10.25;;;;;;;7.21;99.88;100220.28;4849928;28;20049;-59
2023/05/18 04:30:07;;;;;;;18.02;9.95;;;;;;;7.14;100.00;100226.41;4847783;28;21992;-58
2023/05/18 04:32:41;;;;;;;19.27;10.13;;;;;;;7.06;100.00;100228.13;4852898;28;20061;-58
2023/05/18 04:35:13;;;;;;;18.60;10.95;;;;;;;7.11;100.00;100218.59;4853326;28;20263;-58
2023/05/18 04:37:46;;;;;;;18.52;10.07;;;;;;;7.17;100.00;100220.31;4843442;28;20098;-57
2023/05/18 04:40:17;;;;;;;16.77;10.45;;;;;;;7.23;100.00;100212.50;4853116;28;20078;-58
2023/05/18 04:42:49;;;;;;;18.67;10.73;;;;;;;7.23;100.00;100213.34;4853132;28;20054;-58
2023/05/18 04:45:24;;;;;;;20.52;10.70;;;;;;;6.91;99.88;100174.47;4852940;28;20046;-58
2023/05/18 04:47:57;;;;;;;16.42;10.18;;;;;;;7.02;100.00;100203.03;4842367;28;20050;-58
2023/05/18 04:50:29;;;;;;;23.10;11.90;;;;;;;7.04;100.00;100191.78;4852129;28;20389;-58
2023/05/18 04:53:01;;;;;;;21.55;11.68;;;;;;;7.03;100.00;100174.44;4852712;28;20054;-58
2023/05/18 04:55:32;;;;;;;21.23;11.13;;;;;;;7.00;100.00;100184.00;4852659;28;20235;-57
2023/05/18 04:58:06;;;;;;;18.77;10.93;;;;;;;6.80;100.00;100177.13;4842119;28;20061;-59
2023/05/18 05:00:40;;;;;;;16.67;9.18;;;;;;;6.65;100.00;100166.75;4852461;28;20072;-57
2023/05/18 05:03:12;;;;;;;18.73;10.13;;;;;;;6.44;100.00;100147.78;4851329;28;20377;-57
2023/05/18 05:05:43;;;;;;;21.70;11.35;;;;;;;6.60;100.00;100174.56;4849601;28;20495;-58
2023/05/18 05:08:16;;;;;;;18.15;10.73;;;;;;;6.54;100.00;100173.69;4853272;28;20054;-57
2023/05/18 05:10:48;;;;;;;18.40;9.75;;;;;;;6.51;100.00;100173.69;4851592;28;20061;-58
2023/05/18 05:13:19;;;;;;;17.67;10.10;;;;;;;6.46;100.00;100174.59;4859340;28;20065;-58
2023/05/18 05:15:53;;;;;;;22.20;11.20;;;;;;;6.31;100.00;100161.59;4856383;28;20057;-58
2023/05/18 05:18:25;;;;;;;21.98;12.25;;;;;;;6.36;100.00;100178.03;4844145;28;20061;-59
2023/05/18 05:20:58;;;;;;;23.02;13.70;;;;;;;6.34;100.00;100166.81;4851998;28;20092;-58
2023/05/18 05:23:30;;;;;;;29.67;15.05;;;;;;;6.32;100.00;100173.72;4851863;28;20054;-58
2023/05/18 05:26:01;;;;;;;28.98;15.35;;;;;;;6.34;100.00;100172.00;4852431;28;21183;-58
2023/05/18 05:28:33;;;;;;;19.42;10.85;;;;;;;6.38;100.00;100168.53;4851674;28;20989;-57
2023/05/18 05:31:06;;;;;;;23.67;10.75;;;;;;;6.17;100.00;100137.41;4844450;28;20175;-58
2023/05/18 05:33:38;;;;;;;22.15;11.13;;;;;;;6.34;100.00;100155.53;4852305;28;20058;-57
2023/05/18 05:36:10;;;;;;;14.90;7.95;;;;;;;6.40;100.00;100156.41;4852236;28;20045;-57
2023/05/18 05:38:41;;;;;;;17.90;9.35;;;;;;;6.44;100.00;100163.34;4851986;28;20065;-58
2023/05/18 05:41:13;;;;;;;19.13;10.35;;;;;;;6.39;100.00;100136.53;4851567;28;20741;-56
2023/05/18 05:43:45;;;;;;;19.52;10.43;;;;;;;6.51;100.00;100145.16;4852358;28;20057;-58
2023/05/18 05:46:18;;;;;;;18.08;9.23;;;;;;;6.40;100.00;100130.47;4851533;28;20378;-57
2023/05/18 05:48:50;;;;;;;18.77;10.15;;;;;;;6.37;100.00;100120.09;4851718;28;20045;-57
2023/05/18 05:51:22;;;;;;;20.67;11.30;;;;;;;6.38;100.00;100121.81;4851821;28;20054;-58
2023/05/18 05:53:53;;;;;;;17.42;10.30;;;;;;;6.39;100.00;100128.75;4849552;28;20065;-58
2023/05/18 05:56:25;;;;;;;20.77;10.70;;;;;;;6.35;100.00;100121.81;4853898;28;21193;-57
2023/05/18 05:58:56;;;;;;;19.67;9.70;;;;;;;6.21;100.00;100128.75;4852214;28;20145;-58
2023/05/18 06:01:31;;;;;;;12.70;7.28;;;;;;;6.17;100.00;100132.22;4851359;28;20053;-58
2023/05/18 06:04:04;;;;;;;19.70;9.25;;;;;;;6.13;100.00;100146.06;4852072;28;20057;-58
2023/05/18 06:06:35;;;;;;;13.88;8.15;;;;;;;6.05;100.00;100146.06;4841632;28;20054;-58
2023/05/18 06:09:07;;;;;;;14.70;8.93;;;;;;;5.97;100.00;100161.63;4852283;28;20094;-57
2023/05/18 06:11:39;;;;;;;12.02;7.60;;;;;;;5.96;100.00;100175.44;4851752;28;20444;-57
2023/05/18 06:14:11;;;;;;;11.93;7.60;;;;;;;5.92;100.00;100181.47;4850501;28;20060;-58
2023/05/18 06:16:47;;;;;;;13.35;7.00;;;;;;;5.86;100.00;100193.53;4851330;28;20065;-58
2023/05/18 06:19:20;;;;;;;12.45;6.50;;;;;;;5.77;100.00;100197.00;4841200;28;20141;-58
2023/05/18 06:21:51;;;;;;;10.10;5.75;;;;;;;5.81;100.00;100191.81;4846938;28;20054;-57
2023/05/18 06:24:22;;;;;;;11.95;6.50;;;;;;;5.59;100.00;100177.94;4853398;28;20053;-57
2023/05/18 06:26:56;;;;;;;11.32;5.88;;;;;;;5.82;100.00;100209.09;4848479;28;20110;-56
2023/05/18 06:29:27;;;;;;;8.10;4.68;;;;;;;5.72;100.00;100199.59;4853845;28;20061;-57
2023/05/18 06:32:02;;;;;;;11.18;6.32;;;;;;;5.74;100.00;100204.75;4853952;28;20054;-58
2023/05/18 06:34:33;;;;;;;11.52;6.28;;;;;;;5.76;100.00;100197.84;4852864;28;20480;-56
2023/05/18 06:37:06;;;;;;;10.93;5.65;;;;;;;5.79;100.00;100208.22;4859446;28;20144;-57
2023/05/18 06:39:40;;;;;;;10.32;4.97;;;;;;;5.83;100.00;100205.63;4855316;28;20610;-57
2023/05/18 06:42:11;;;;;;;13.25;6.40;;;;;;;5.89;100.00;100220.38;4855751;28;20140;-57
2023/05/18 06:44:42;;;;;;;12.02;6.05;;;;;;;5.95;100.00;100212.63;4854715;28;20472;-57
2023/05/18 06:47:14;;;;;;;12.55;6.18;;;;;;;5.93;100.00;100201.34;4853795;28;21068;-56
2023/05/18 06:49:45;;;;;;;11.10;6.13;;;;;;;5.91;100.00;100197.88;4853861;28;20141;-55
2023/05/18 06:52:15;;;;;;;9.90;6.22;;;;;;;5.87;100.00;100190.97;4855423;28;20053;-57
2023/05/18 06:54:56;;;;;;;13.90;6.63;;;;;;;5.80;100.00;100190.09;4855364;28;20053;-57
2023/05/18 06:57:32;;;;;;;12.77;6.72;;;;;;;5.82;100.00;100190.09;4844486;28;20465;-57
2023/05/18 07:00:05;;;;;;;10.93;5.95;;;;;;;5.79;100.00;100192.66;4848958;28;20085;-57
2023/05/18 07:02:42;;;;;;;10.52;6.25;;;;;;;5.67;100.00;100166.75;4855203;28;20057;-53
2023/05/18 07:05:15;;;;;;;12.20;5.88;;;;;;;5.79;100.00;100188.38;4858123;28;20050;-53
2023/05/18 07:07:46;;;;;;;13.27;5.85;;;;;;;5.75;100.00;100189.22;4854818;28;20053;-56
2023/05/18 07:10:17;;;;;;;12.40;5.80;;;;;;;5.70;100.00;100187.47;4852739;28;20135;-55
2023/05/18 07:12:47;;;;;;;11.02;5.55;;;;;;;5.65;100.00;100184.00;4854433;28;20046;-55
2023/05/18 07:15:18;;;;;;;10.95;6.15;;;;;;;5.53;100.00;100177.91;4852360;28;20491;-55
2023/05/18 07:17:50;;;;;;;11.55;6.18;;;;;;;5.51;100.00;100182.22;4852372;28;20420;-56
2023/05/18 07:20:24;;;;;;;12.15;5.72;;;;;;;5.65;100.00;100194.38;4846459;28;20726;-57
2023/05/18 07:23:00;;;;;;;11.57;6.82;;;;;;;5.69;100.00;100201.28;4855160;28;20054;-55
2023/05/18 07:25:31;;;;;;;11.90;6.47;;;;;;;5.71;100.00;100184.00;4854737;28;20206;-56
2023/05/18 07:28:05;;;;;;;10.43;6.40;;;;;;;5.67;100.00;100177.09;4854107;28;20981;-55
2023/05/18 07:30:43;;;;;;;12.05;6.57;;;;;;;5.65;100.00;100199.56;4843384;28;21127;-56
2023/05/18 07:33:20;;;;;;;9.32;5.75;;;;;;;5.61;100.00;100189.16;4861183;28;20077;-56
2023/05/18 07:35:51;;;;;;;11.35;6.40;;;;;;;5.67;100.00;100187.47;4854565;28;20050;-54
2023/05/18 07:38:27;;;;;;;14.18;6.70;;;;;;;5.68;100.00;100189.19;4854870;28;20041;-54
2023/05/18 07:40:58;;;;;;;11.38;6.72;;;;;;;5.71;100.00;100204.75;4844508;28;20491;-56
2023/05/18 07:43:30;;;;;;;9.75;5.95;;;;;;;5.65;100.00;100215.13;4854222;28;20071;-56
2023/05/18 07:46:00;;;;;;;9.20;5.97;;;;;;;5.59;100.00;100206.47;4854192;28;20054;-56
2023/05/18 07:48:32;;;;;;;9.55;5.55;;;;;;;5.59;100.00;100210.75;4853607;28;20062;-55
2023/05/18 07:51:09;;;;;;;9.27;5.75;;;;;;;5.56;100.00;100211.63;4844005;28;21183;-55
2023/05/18 07:53:39;;;;;;;8.40;4.22;;;;;;;5.56;100.00;100206.44;4853955;28;20053;-56
2023/05/18 07:56:10;;;;;;;8.75;5.38;;;;;;;5.55;100.00;100204.72;4854612;28;20060;-56
2023/05/18 07:58:45;;;;;;;7.93;4.70;;;;;;;5.57;100.00;100208.19;4850440;28;20054;-55
2023/05/18 08:01:16;;;;;;;10.10;5.05;;;;;;;5.54;100.00;100199.50;4851498;28;20132;-54
2023/05/18 08:03:49;;;;;;;10.32;5.63;;;;;;;5.48;100.00;100192.59;4852895;28;20054;-55
2023/05/18 08:06:20;;;;;;;9.00;4.93;;;;;;;5.49;100.00;100198.63;4853951;28;20050;-56
2023/05/18 08:08:59;;;;;;;8.18;4.70;;;;;;;5.43;100.00;100189.13;4853859;28;20046;-55
2023/05/18 08:11:34;;;;;;;8.05;5.30;;;;;;;5.40;100.00;100179.63;4844041;28;20800;-55
2023/05/18 08:14:08;;;;;;;7.90;4.75;;;;;;;5.38;100.00;100190.84;4844170;28;20528;-55
2023/05/18 08:16:38;;;;;;;8.20;4.57;;;;;;;5.40;100.00;100183.94;4853608;28;20060;-57
2023/05/18 08:19:11;;;;;;;8.57;5.78;;;;;;;5.46;100.00;100194.31;4852324;28;20050;-56
2023/05/18 08:21:41;;;;;;;8.55;5.30;;;;;;;5.46;100.00;100186.53;4852750;28;20060;-57
2023/05/18 08:24:23;;;;;;;8.05;4.82;;;;;;;5.25;100.00;100168.34;4853198;28;20053;-56
2023/05/18 08:26:54;;;;;;;6.60;4.30;;;;;;;5.36;100.00;100188.22;4845215;28;20050;-56
2023/05/18 08:29:34;;;;;;;7.10;4.72;;;;;;;5.38;100.00;100196.00;4852836;28;20046;-57
2023/05/18 08:32:11;;;;;;;8.05;4.40;;;;;;;5.34;100.00;100195.16;4843733;28;20543;-55
2023/05/18 08:34:50;;;;;;;7.35;4.78;;;;;;;5.41;100.00;100208.97;4842256;28;20127;-57
2023/05/18 08:37:23;;;;;;;9.90;5.45;;;;;;;5.32;100.00;100201.19;4852747;28;20056;-57
2023/05/18 08:39:58;;;;;;;6.85;4.18;;;;;;;5.40;100.00;100204.66;4844892;28;20065;-57
2023/05/18 08:42:35;;;;;;;10.35;5.72;;;;;;;5.37;100.00;100199.47;4853056;28;20086;-56
2023/05/18 08:45:21;;;;;;;;;;;;;;;5.38;100.00;100198.59;4839759;28;20465;-55
2023/05/18 08:47:57;;;;;;;8.60;4.93;;;;;;;5.30;100.00;100189.94;4850952;28;19930;-57
2023/05/18 08:50:35;;;;;;;10.95;5.68;;;;;;;5.35;100.00;100201.19;4842575;28;20129;-58
2023/05/18 08:53:08;;;;;;;9.00;5.00;;;;;;;5.34;100.00;100194.25;4842248;28;20053;-57
2023/05/18 08:55:44;;;;;;;7.30;4.78;;;;;;;5.37;100.00;100200.34;4850107;28;20126;-57
2023/05/18 08:58:20;;;;;;;10.23;4.65;;;;;;;5.35;100.00;100196.00;4852686;28;20053;-56
2023/05/18 09:00:55;;;;;;;5.63;3.75;;;;;;;5.37;100.00;100209.84;4852008;28;20081;-57
2023/05/18 09:03:29;;;;;;;6.55;3.58;;;;;;;5.24;100.00;100202.84;4841873;28;20061;-57
2023/05/18 09:06:02;;;;;;;5.22;3.70;;;;;;;5.23;100.00;100227.03;4851584;28;21240;-57
2023/05/18 09:08:35;;;;;;;5.63;3.97;;;;;;;5.22;100.00;100222.69;4842602;28;20061;-57
2023/05/18 09:11:09;;;;;;;5.45;3.55;;;;;;;4.97;100.00;100194.13;4853005;28;20054;-58
2023/05/18 09:13:39;;;;;;;5.65;3.85;;;;;;;5.06;100.00;100225.22;4852299;28;20499;-57
2023/05/18 09:16:10;;;;;;;6.90;4.38;;;;;;;5.18;100.00;100230.47;4852382;28;20054;-58
2023/05/18 09:18:44;;;;;;;5.50;4.00;;;;;;;5.18;100.00;100235.66;4851711;28;20120;-57
2023/05/18 09:21:23;;;;;;;4.68;3.72;;;;;;;5.12;100.00;100220.09;4842521;28;20056;-53
2023/05/18 09:23:53;;;;;;;5.95;4.07;;;;;;;4.92;100.00;100212.22;4846957;28;20649;-56
2023/05/18 09:26:25;;;;;;;6.13;3.83;;;;;;;5.00;100.00;100230.38;4853514;28;20108;-57
2023/05/18 09:29:00;;;;;;;6.15;4.60;;;;;;;5.01;100.00;100232.09;4852332;28;20054;-57
2023/05/18 09:31:33;;;;;;;5.85;4.03;;;;;;;5.05;100.00;100239.03;4849732;28;20475;-56
2023/05/18 09:34:05;;;;;;;5.45;4.30;;;;;;;5.05;100.00;100239.03;4856957;28;20125;-55
2023/05/18 09:36:37;;;;;;;6.13;4.38;;;;;;;4.93;100.00;100213.94;4852226;28;20059;-57
2023/05/18 09:39:11;;;;;;;7.28;4.80;;;;;;;5.05;100.00;100235.59;4852203;28;20046;-56
2023/05/18 09:41:42;;;;;;;8.40;5.15;;;;;;;5.03;100.00;100240.75;4852294;28;20794;-57
2023/05/18 09:44:13;;;;;;;5.65;4.57;;;;;;;5.03;100.00;100245.06;4848424;28;20050;-55
2023/05/18 09:46:47;;;;;;;6.88;4.28;;;;;;;4.99;100.00;100249.34;4851648;28;20058;-55
2023/05/18 09:49:23;;;;;;;8.10;4.88;;;;;;;4.98;100.00;100252.81;4851736;28;20054;-57
2023/05/18 09:51:55;;;;;;;6.28;4.35;;;;;;;4.99;100.00;100254.53;4845757;28;20129;-57
2023/05/18 09:54:25;;;;;;;5.75;4.32;;;;;;;4.96;100.00;100249.34;4851162;28;20053;-57
2023/05/18 09:57:02;;;;;;;8.95;4.57;;;;;;;5.00;100.00;100265.78;4851899;28;20050;-57
2023/05/18 09:59:43;;;;;;;10.13;4.55;;;;;;;5.04;100.00;100268.41;4842271;28;20053;-57
2023/05/18 10:02:14;;;;;;;6.72;4.40;;;;;;;4.98;100.00;100273.53;4846230;28;20047;-56
2023/05/18 10:04:45;;;;;;;5.18;4.00;;;;;;;4.88;100.00;100276.91;4852335;28;20057;-55
2023/05/18 10:07:20;;;;;;;5.25;4.18;;;;;;;4.84;100.00;100269.97;4851958;28;20108;-58
2023/05/18 10:10:02;;;;;;;5.80;4.60;;;;;;;4.81;100.00;100276.00;4851517;28;20493;-58
2023/05/18 10:12:39;;;;;;;8.05;4.20;;;;;;;4.82;100.00;100282.03;4841684;28;20053;-56
2023/05/18 10:15:14;;;;;;;6.70;4.50;;;;;;;4.79;100.00;100287.19;4851458;28;20737;-58
2023/05/18 10:17:47;;;;;;;6.97;4.28;;;;;;;4.81;100.00;100296.69;4842071;28;20062;-57
2023/05/18 10:20:23;;;;;;;6.20;4.20;;;;;;;4.80;100.00;100299.28;4851612;28;20049;-57
2023/05/18 10:23:01;;;;;;;6.25;4.47;;;;;;;4.78;100.00;100301.00;4841226;28;20091;-55
2023/05/18 10:25:46;;;;;;;5.55;4.10;;;;;;;4.71;100.00;100293.16;4851306;28;20816;-56
2023/05/18 10:28:24;;;;;;;5.68;3.92;;;;;;;4.66;100.00;100292.25;4840781;28;20058;-56
2023/05/18 10:30:59;;;;;;;7.93;4.15;;;;;;;4.63;100.00;100312.94;4841194;28;20560;-55
2023/05/18 10:33:31;;;;;;;7.05;4.63;;;;;;;4.65;100.00;100325.91;4851690;28;20076;-56
2023/05/18 10:36:08;;;;;;;6.70;5.10;;;;;;;4.69;100.00;100320.78;4851471;28;21145;-55
2023/05/18 10:38:44;;;;;;;6.18;4.40;;;;;;;4.69;100.00;100331.16;4842184;28;20481;-57
2023/05/18 10:41:23;;;;;;;7.28;4.95;;;;;;;4.62;100.00;100334.53;4842026;28;20064;-56
2023/05/18 10:44:01;;;;;;;7.45;5.53;;;;;;;4.68;100.00;100342.34;4842821;28;20480;-57
2023/05/18 10:46:32;;;;;;;10.25;6.00;;;;;;;4.63;100.00;100331.06;4850210;28;20228;-56
2023/05/18 10:49:11;;;;;;;9.73;6.85;;;;;;;4.67;100.00;100331.97;4848202;28;20063;-56
2023/05/18 10:51:43;;;;;;;8.55;6.60;;;;;;;4.64;100.00;100335.41;4851096;28;20053;-57
2023/05/18 10:54:16;;;;;;;13.70;8.98;;;;;;;4.70;100.00;100350.97;4842045;28;21392;-56
2023/05/18 10:56:52;;;;;;;10.18;7.43;;;;;;;4.66;100.00;100338.84;4851354;28;20555;-56
2023/05/18 10:59:26;;;;;;;11.93;7.85;;;;;;;4.79;100.00;100354.50;4848164;28;20058;-55
2023/05/18 11:01:59;;;;;;;11.27;7.22;;;;;;;4.58;100.00;100319.81;4850654;28;20783;-56
2023/05/18 11:04:31;;;;;;;9.20;6.40;;;;;;;4.75;100.00;100348.44;4850656;28;20049;-57
2023/05/18 11:07:02;;;;;;;9.57;6.75;;;;;;;4.83;100.00;100358.84;4849841;28;20777;-55
2023/05/18 11:09:36;;;;;;;10.70;7.05;;;;;;;4.79;100.00;100350.19;4857422;28;20050;-56
2023/05/18 11:12:16;;;;;;;8.88;6.22;;;;;;;4.71;100.00;100352.69;4854663;28;20046;-57
2023/05/18 11:14:51;;;;;;;9.77;6.57;;;;;;;4.69;100.00;100354.44;4844709;28;20049;-57
2023/05/18 11:17:26;;;;;;;8.57;5.45;;;;;;;4.70;100.00;100356.16;4855096;28;20518;-57
2023/05/18 11:20:16;;;;;;;9.63;5.72;;;;;;;4.71;100.00;100362.19;4843541;28;20054;-55
2023/05/18 11:22:50;;;;;;;9.32;6.25;;;;;;;4.69;100.00;100354.44;4844127;28;20531;-54
2023/05/18 11:25:44;;;;;;;7.65;5.72;;;;;;;4.79;100.00;100354.50;4854112;28;20049;-56
2023/05/18 11:28:16;;;;;;;8.63;5.80;;;;;;;4.79;100.00;100364.84;4832277;28;20097;-56
2023/05/18 11:30:50;;;;;;;9.20;5.72;;;;;;;4.76;100.00;100357.94;4854879;28;20119;-57
2023/05/18 11:33:25;;;;;;;7.53;5.15;;;;;;;4.81;100.00;100363.16;4854037;28;20060;-56
2023/05/18 11:36:01;;;;;;;7.78;5.30;;;;;;;4.83;100.00;100361.44;4844268;28;20140;-57
2023/05/18 11:38:52;;;;;;;9.27;6.13;;;;;;;4.89;100.00;100364.06;4853443;28;20129;-56
2023/05/18 11:41:31;;;;;;;8.73;5.82;;;;;;;4.93;100.00;100350.31;4842944;28;20050;-56
2023/05/18 11:44:08;;;;;;;6.88;5.20;;;;;;;5.03;100.00;100354.69;4851377;28;20054;-57
2023/05/18 11:46:53;;;;;;;7.25;5.45;;;;;;;5.03;100.00;100349.53;4849016;28;20527;-58
2023/05/18 11:49:27;;;;;;;8.85;5.50;;;;;;;4.96;100.00;100347.72;4844412;28;20059;-57
2023/05/18 11:52:06;;;;;;;5.65;4.28;;;;;;;4.87;100.00;100338.19;4854124;28;20476;-57